sensor_id;sensor_type;location;lat;lon;timestamp;temperature;humidity
23156;DHT22;11746;50.876;4.246;2022-10-04T00:03:29;12.10;99.90
23156;DHT22;11746;50.876;4.246;2022-10-04T00:05:58;12.10;99.90
23156;DHT22;11746;50.876;4.246;2022-10-04T00:08:30;12.00;99.90
23156;DHT22;11746;50.876;4.246;2022-10-04T00:13:53;11.90;99.90
23156;DHT22;11746;50.876;4.246;2022-10-04T00:16:33;11.80;99.90
23156;DHT22;11746;50.876;4.246;2022-10-04T00:19:23;11.80;99.90
23156;DHT22;11746;50.876;4.246;2022-10-04T00:24:27;11.80;99.90
23156;DHT22;11746;50.876;4.246;2022-10-04T00:27:20;12.10;99.90
23156;DHT22;11746;50.876;4.246;2022-10-04T00:32:30;12.00;99.90
23156;DHT22;11746;50.876;4.246;2022-10-04T00:34:58;11.90;99.90
23156;DHT22;11746;50.876;4.246;2022-10-04T00:37:25;11.70;99.90
23156;DHT22;11746;50.876;4.246;2022-10-04T00:40:11;11.60;99.90
23156;DHT22;11746;50.876;4.246;2022-10-04T00:42:42;11.70;99.90
23156;DHT22;11746;50.876;4.246;2022-10-04T00:45:30;11.70;99.90
23156;DHT22;11746;50.876;4.246;2022-10-04T00:48:02;11.90;99.90
23156;DHT22;11746;50.876;4.246;2022-10-04T00:50:53;12.00;99.90
23156;DHT22;11746;50.876;4.246;2022-10-04T00:56:11;11.70;99.90
23156;DHT22;11746;50.876;4.246;2022-10-04T01:01:31;11.50;99.90
23156;DHT22;11746;50.876;4.246;2022-10-04T01:04:01;11.50;99.90
23156;DHT22;11746;50.876;4.246;2022-10-04T01:06:28;11.50;99.90
23156;DHT22;11746;50.876;4.246;2022-10-04T01:09:01;11.70;99.90
23156;DHT22;11746;50.876;4.246;2022-10-04T01:11:33;11.80;99.90
23156;DHT22;11746;50.876;4.246;2022-10-04T01:14:08;11.80;99.90
23156;DHT22;11746;50.876;4.246;2022-10-04T01:16:36;11.80;99.90
23156;DHT22;11746;50.876;4.246;2022-10-04T01:24:35;11.80;99.90
23156;DHT22;11746;50.876;4.246;2022-10-04T01:27:02;11.90;99.90
23156;DHT22;11746;50.876;4.246;2022-10-04T01:29:29;11.80;99.90
23156;DHT22;11746;50.876;4.246;2022-10-04T01:32:00;11.70;99.90
23156;DHT22;11746;50.876;4.246;2022-10-04T01:34:27;11.70;99.90
23156;DHT22;11746;50.876;4.246;2022-10-04T01:36:56;11.60;99.90
23156;DHT22;11746;50.876;4.246;2022-10-04T01:39:24;11.70;99.90
23156;DHT22;11746;50.876;4.246;2022-10-04T01:42:14;11.70;99.90
23156;DHT22;11746;50.876;4.246;2022-10-04T01:44:56;11.80;99.90
23156;DHT22;11746;50.876;4.246;2022-10-04T01:47:40;11.90;99.90
23156;DHT22;11746;50.876;4.246;2022-10-04T01:50:14;11.90;99.90
23156;DHT22;11746;50.876;4.246;2022-10-04T01:52:44;11.80;99.90
23156;DHT22;11746;50.876;4.246;2022-10-04T01:55:16;11.70;99.90
23156;DHT22;11746;50.876;4.246;2022-10-04T01:57:53;11.60;99.90
23156;DHT22;11746;50.876;4.246;2022-10-04T02:00:23;11.40;99.90
23156;DHT22;11746;50.876;4.246;2022-10-04T02:02:53;11.40;99.90
23156;DHT22;11746;50.876;4.246;2022-10-04T02:05:43;11.30;99.90
23156;DHT22;11746;50.876;4.246;2022-10-04T02:08:14;11.40;99.90
23156;DHT22;11746;50.876;4.246;2022-10-04T02:10:42;11.70;99.90
23156;DHT22;11746;50.876;4.246;2022-10-04T02:13:13;11.60;99.90
23156;DHT22;11746;50.876;4.246;2022-10-04T02:15:40;11.50;99.90
23156;DHT22;11746;50.876;4.246;2022-10-04T02:18:12;11.40;99.90
23156;DHT22;11746;50.876;4.246;2022-10-04T02:20:39;11.50;99.90
23156;DHT22;11746;50.876;4.246;2022-10-04T02:23:07;11.60;99.90
23156;DHT22;11746;50.876;4.246;2022-10-04T02:25:35;11.70;99.90
23156;DHT22;11746;50.876;4.246;2022-10-04T02:28:02;11.80;99.90
23156;DHT22;11746;50.876;4.246;2022-10-04T02:30:35;11.80;99.90
23156;DHT22;11746;50.876;4.246;2022-10-04T02:33:01;11.70;99.90
23156;DHT22;11746;50.876;4.246;2022-10-04T02:35:42;11.70;99.90
23156;DHT22;11746;50.876;4.246;2022-10-04T02:38:14;11.70;99.90
23156;DHT22;11746;50.876;4.246;2022-10-04T02:43:27;11.70;99.90
23156;DHT22;11746;50.876;4.246;2022-10-04T02:48:39;11.70;99.90
23156;DHT22;11746;50.876;4.246;2022-10-04T02:51:51;11.60;99.90
23156;DHT22;11746;50.876;4.246;2022-10-04T02:55:12;11.60;99.90
23156;DHT22;11746;50.876;4.246;2022-10-04T02:57:22;11.70;99.90
23156;DHT22;11746;50.876;4.246;2022-10-04T02:59:49;11.60;99.90
23156;DHT22;11746;50.876;4.246;2022-10-04T03:02:24;11.70;99.90
23156;DHT22;11746;50.876;4.246;2022-10-04T03:04:55;11.70;99.90
23156;DHT22;11746;50.876;4.246;2022-10-04T03:07:22;11.70;99.90
23156;DHT22;11746;50.876;4.246;2022-10-04T03:09:48;11.60;99.90
23156;DHT22;11746;50.876;4.246;2022-10-04T03:12:15;11.50;99.90
23156;DHT22;11746;50.876;4.246;2022-10-04T03:14:42;11.60;99.90
23156;DHT22;11746;50.876;4.246;2022-10-04T03:17:09;11.50;99.90
23156;DHT22;11746;50.876;4.246;2022-10-04T03:19:35;11.60;99.90
23156;DHT22;11746;50.876;4.246;2022-10-04T03:22:08;11.40;99.90
23156;DHT22;11746;50.876;4.246;2022-10-04T03:27:06;11.30;99.90
23156;DHT22;11746;50.876;4.246;2022-10-04T03:29:33;11.40;99.90
23156;DHT22;11746;50.876;4.246;2022-10-04T03:32:02;11.40;99.90
23156;DHT22;11746;50.876;4.246;2022-10-04T03:34:37;11.40;99.90
23156;DHT22;11746;50.876;4.246;2022-10-04T03:37:11;11.30;99.90
23156;DHT22;11746;50.876;4.246;2022-10-04T03:39:44;11.30;99.90
23156;DHT22;11746;50.876;4.246;2022-10-04T03:42:22;11.20;99.90
23156;DHT22;11746;50.876;4.246;2022-10-04T03:44:51;11.50;99.90
23156;DHT22;11746;50.876;4.246;2022-10-04T03:47:28;11.50;99.90
23156;DHT22;11746;50.876;4.246;2022-10-04T03:49:59;11.40;99.90
23156;DHT22;11746;50.876;4.246;2022-10-04T03:52:31;11.30;99.90
23156;DHT22;11746;50.876;4.246;2022-10-04T03:55:02;11.20;99.90
23156;DHT22;11746;50.876;4.246;2022-10-04T03:57:29;11.20;99.90
23156;DHT22;11746;50.876;4.246;2022-10-04T03:59:56;11.10;99.90
23156;DHT22;11746;50.876;4.246;2022-10-04T04:02:40;11.00;99.90
23156;DHT22;11746;50.876;4.246;2022-10-04T04:05:20;11.00;99.90
23156;DHT22;11746;50.876;4.246;2022-10-04T04:10:23;10.90;99.90
23156;DHT22;11746;50.876;4.246;2022-10-04T04:12:52;11.00;99.90
23156;DHT22;11746;50.876;4.246;2022-10-04T04:15:19;10.90;99.90
23156;DHT22;11746;50.876;4.246;2022-10-04T04:17:51;10.90;99.90
23156;DHT22;11746;50.876;4.246;2022-10-04T04:20:33;10.90;99.90
23156;DHT22;11746;50.876;4.246;2022-10-04T04:25:47;10.90;99.90
23156;DHT22;11746;50.876;4.246;2022-10-04T04:28:33;10.90;99.90
23156;DHT22;11746;50.876;4.246;2022-10-04T04:31:19;10.80;99.90
23156;DHT22;11746;50.876;4.246;2022-10-04T04:34:01;10.80;99.90
23156;DHT22;11746;50.876;4.246;2022-10-04T04:36:30;10.90;99.90
23156;DHT22;11746;50.876;4.246;2022-10-04T04:41:57;10.90;99.90
23156;DHT22;11746;50.876;4.246;2022-10-04T04:44:25;10.90;99.90
23156;DHT22;11746;50.876;4.246;2022-10-04T04:46:51;10.80;99.90
23156;DHT22;11746;50.876;4.246;2022-10-04T04:49:27;10.80;99.90
23156;DHT22;11746;50.876;4.246;2022-10-04T04:51:54;10.90;99.90
23156;DHT22;11746;50.876;4.246;2022-10-04T04:54:24;10.90;99.90
23156;DHT22;11746;50.876;4.246;2022-10-04T04:56:53;10.80;99.90
23156;DHT22;11746;50.876;4.246;2022-10-04T04:59:21;10.80;99.90
23156;DHT22;11746;50.876;4.246;2022-10-04T05:01:48;10.70;99.90
23156;DHT22;11746;50.876;4.246;2022-10-04T05:04:17;10.80;99.90
23156;DHT22;11746;50.876;4.246;2022-10-04T05:07:15;10.80;99.90
23156;DHT22;11746;50.876;4.246;2022-10-04T05:09:44;10.90;99.90
23156;DHT22;11746;50.876;4.246;2022-10-04T05:12:21;10.80;99.90
23156;DHT22;11746;50.876;4.246;2022-10-04T05:14:50;10.70;99.90
23156;DHT22;11746;50.876;4.246;2022-10-04T05:17:25;10.60;99.90
23156;DHT22;11746;50.876;4.246;2022-10-04T05:19:55;10.70;99.90
23156;DHT22;11746;50.876;4.246;2022-10-04T05:22:23;10.80;99.90
23156;DHT22;11746;50.876;4.246;2022-10-04T05:25:00;10.70;99.90
23156;DHT22;11746;50.876;4.246;2022-10-04T05:27:39;10.80;99.90
23156;DHT22;11746;50.876;4.246;2022-10-04T05:30:08;10.80;99.90
23156;DHT22;11746;50.876;4.246;2022-10-04T05:33:08;10.70;99.90
23156;DHT22;11746;50.876;4.246;2022-10-04T05:38:59;10.60;99.90
23156;DHT22;11746;50.876;4.246;2022-10-04T05:44:00;10.50;99.90
23156;DHT22;11746;50.876;4.246;2022-10-04T05:46:30;10.50;99.90
23156;DHT22;11746;50.876;4.246;2022-10-04T05:49:13;10.60;99.90
23156;DHT22;11746;50.876;4.246;2022-10-04T05:51:59;10.60;99.90
23156;DHT22;11746;50.876;4.246;2022-10-04T05:54:28;10.70;99.90
23156;DHT22;11746;50.876;4.246;2022-10-04T05:57:39;10.70;99.90
23156;DHT22;11746;50.876;4.246;2022-10-04T06:00:18;10.60;99.90
23156;DHT22;11746;50.876;4.246;2022-10-04T06:03:08;10.70;99.90
23156;DHT22;11746;50.876;4.246;2022-10-04T06:06:03;10.70;99.90
23156;DHT22;11746;50.876;4.246;2022-10-04T06:11:42;10.70;99.90
23156;DHT22;11746;50.876;4.246;2022-10-04T06:22:46;10.90;99.90
23156;DHT22;11746;50.876;4.246;2022-10-04T06:25:25;10.90;99.90
23156;DHT22;11746;50.876;4.246;2022-10-04T06:33:58;11.00;99.90
23156;DHT22;11746;50.876;4.246;2022-10-04T06:45:03;11.10;99.90
23156;DHT22;11746;50.876;4.246;2022-10-04T06:47:52;11.00;99.90
23156;DHT22;11746;50.876;4.246;2022-10-04T07:01:22;11.40;99.90
23156;DHT22;11746;50.876;4.246;2022-10-04T07:04:10;11.50;99.90
23156;DHT22;11746;50.876;4.246;2022-10-04T07:06:48;11.50;99.90
23156;DHT22;11746;50.876;4.246;2022-10-04T07:09:27;11.60;99.90
23156;DHT22;11746;50.876;4.246;2022-10-04T07:12:11;11.50;99.90
23156;DHT22;11746;50.876;4.246;2022-10-04T07:14:49;11.60;99.90
23156;DHT22;11746;50.876;4.246;2022-10-04T07:17:41;11.60;99.90
23156;DHT22;11746;50.876;4.246;2022-10-04T07:20:13;11.70;99.90
23156;DHT22;11746;50.876;4.246;2022-10-04T07:25:49;11.90;99.90
23156;DHT22;11746;50.876;4.246;2022-10-04T07:28:37;12.00;99.90
23156;DHT22;11746;50.876;4.246;2022-10-04T07:31:26;12.00;99.90
23156;DHT22;11746;50.876;4.246;2022-10-04T07:34:09;12.20;99.90
23156;DHT22;11746;50.876;4.246;2022-10-04T07:36:46;12.20;99.90
23156;DHT22;11746;50.876;4.246;2022-10-04T07:39:18;12.40;99.90
23156;DHT22;11746;50.876;4.246;2022-10-04T07:41:52;12.40;99.90
23156;DHT22;11746;50.876;4.246;2022-10-04T07:44:40;12.70;99.90
23156;DHT22;11746;50.876;4.246;2022-10-04T07:47:20;12.70;99.90
23156;DHT22;11746;50.876;4.246;2022-10-04T07:49:47;12.70;99.90
23156;DHT22;11746;50.876;4.246;2022-10-04T07:52:42;12.80;99.90
23156;DHT22;11746;50.876;4.246;2022-10-04T08:00:54;12.60;99.90
23156;DHT22;11746;50.876;4.246;2022-10-04T08:06:30;12.10;99.90
23156;DHT22;11746;50.876;4.246;2022-10-04T08:14:52;12.00;99.90
23156;DHT22;11746;50.876;4.246;2022-10-04T08:17:29;11.80;99.90
23156;DHT22;11746;50.876;4.246;2022-10-04T08:23:19;12.10;99.90
23156;DHT22;11746;50.876;4.246;2022-10-04T08:34:33;12.60;99.90
23156;DHT22;11746;50.876;4.246;2022-10-04T08:42:58;13.10;99.90
23156;DHT22;11746;50.876;4.246;2022-10-04T08:48:51;13.20;99.90
23156;DHT22;11746;50.876;4.246;2022-10-04T08:54:43;13.50;99.90
23156;DHT22;11746;50.876;4.246;2022-10-04T09:09:37;14.00;99.90
23156;DHT22;11746;50.876;4.246;2022-10-04T09:12:41;14.10;99.90
23156;DHT22;11746;50.876;4.246;2022-10-04T09:15:24;14.20;99.90
23156;DHT22;11746;50.876;4.246;2022-10-04T09:18:28;14.20;99.90
23156;DHT22;11746;50.876;4.246;2022-10-04T09:33:55;14.50;99.90
23156;DHT22;11746;50.876;4.246;2022-10-04T09:39:19;14.50;99.90
23156;DHT22;11746;50.876;4.246;2022-10-04T09:50:20;15.10;99.90
23156;DHT22;11746;50.876;4.246;2022-10-04T09:53:26;15.20;99.90
23156;DHT22;11746;50.876;4.246;2022-10-04T09:59:15;15.30;99.90
23156;DHT22;11746;50.876;4.246;2022-10-04T10:05:06;15.30;99.90
23156;DHT22;11746;50.876;4.246;2022-10-04T10:13:51;15.80;99.90
23156;DHT22;11746;50.876;4.246;2022-10-04T10:17:01;15.90;99.90
23156;DHT22;11746;50.876;4.246;2022-10-04T10:22:52;16.00;99.90
23156;DHT22;11746;50.876;4.246;2022-10-04T10:34:13;15.90;99.90
23156;DHT22;11746;50.876;4.246;2022-10-04T10:37:22;16.10;99.90
23156;DHT22;11746;50.876;4.246;2022-10-04T10:40:22;16.30;99.90
23156;DHT22;11746;50.876;4.246;2022-10-04T10:46:28;16.60;99.90
23156;DHT22;11746;50.876;4.246;2022-10-04T10:49:25;16.70;99.90
23156;DHT22;11746;50.876;4.246;2022-10-04T10:52:03;16.90;99.90
23156;DHT22;11746;50.876;4.246;2022-10-04T10:55:00;17.00;99.90
23156;DHT22;11746;50.876;4.246;2022-10-04T11:00:58;17.00;99.90
23156;DHT22;11746;50.876;4.246;2022-10-04T11:03:55;17.00;99.90
23156;DHT22;11746;50.876;4.246;2022-10-04T11:12:16;17.20;99.90
23156;DHT22;11746;50.876;4.246;2022-10-04T11:29:25;17.50;99.90
23156;DHT22;11746;50.876;4.246;2022-10-04T11:57:24;18.20;99.90
23156;DHT22;11746;50.876;4.246;2022-10-04T12:03:00;18.60;99.90
23156;DHT22;11746;50.876;4.246;2022-10-04T12:08:22;19.00;99.90
23156;DHT22;11746;50.876;4.246;2022-10-04T12:22:43;19.50;99.90
23156;DHT22;11746;50.876;4.246;2022-10-04T12:25:45;19.80;99.90
23156;DHT22;11746;50.876;4.246;2022-10-04T12:33:51;20.10;99.90
23156;DHT22;11746;50.876;4.246;2022-10-04T12:36:35;20.10;99.90
23156;DHT22;11746;50.876;4.246;2022-10-04T12:40:06;20.50;99.90
23156;DHT22;11746;50.876;4.246;2022-10-04T12:45:24;20.90;99.90
23156;DHT22;11746;50.876;4.246;2022-10-04T12:51:10;20.90;99.90
23156;DHT22;11746;50.876;4.246;2022-10-04T13:02:39;21.60;99.90
23156;DHT22;11746;50.876;4.246;2022-10-04T13:05:21;21.70;99.90
23156;DHT22;11746;50.876;4.246;2022-10-04T13:08:21;22.20;99.90
23156;DHT22;11746;50.876;4.246;2022-10-04T13:11:08;22.70;99.90
23156;DHT22;11746;50.876;4.246;2022-10-04T13:14:03;22.70;99.90
23156;DHT22;11746;50.876;4.246;2022-10-04T13:16:57;22.30;99.90
23156;DHT22;11746;50.876;4.246;2022-10-04T13:19:59;22.10;99.90
23156;DHT22;11746;50.876;4.246;2022-10-04T13:31:28;22.70;99.90
23156;DHT22;11746;50.876;4.246;2022-10-04T13:39:52;23.30;99.90
23156;DHT22;11746;50.876;4.246;2022-10-04T13:45:42;23.70;99.90
23156;DHT22;11746;50.876;4.246;2022-10-04T13:51:37;24.40;98.40
23156;DHT22;11746;50.876;4.246;2022-10-04T14:00:01;25.20;98.00
23156;DHT22;11746;50.876;4.246;2022-10-04T14:02:35;25.10;97.70
23156;DHT22;11746;50.876;4.246;2022-10-04T14:19:57;26.30;93.10
23156;DHT22;11746;50.876;4.246;2022-10-04T14:25:28;26.40;93.50
23156;DHT22;11746;50.876;4.246;2022-10-04T14:28:26;26.30;92.20
23156;DHT22;11746;50.876;4.246;2022-10-04T14:33:58;26.20;92.10
23156;DHT22;11746;50.876;4.246;2022-10-04T14:40:39;25.00;93.50
23156;DHT22;11746;50.876;4.246;2022-10-04T14:48:40;24.80;93.20
23156;DHT22;11746;50.876;4.246;2022-10-04T15:02:40;24.40;94.80
23156;DHT22;11746;50.876;4.246;2022-10-04T15:05:43;24.70;93.50
23156;DHT22;11746;50.876;4.246;2022-10-04T15:08:26;24.20;94.30
23156;DHT22;11746;50.876;4.246;2022-10-04T15:11:02;24.50;94.40
23156;DHT22;11746;50.876;4.246;2022-10-04T15:19:30;24.20;94.40
23156;DHT22;11746;50.876;4.246;2022-10-04T15:22:05;23.80;94.90
23156;DHT22;11746;50.876;4.246;2022-10-04T15:31:04;21.40;99.90
23156;DHT22;11746;50.876;4.246;2022-10-04T15:33:24;21.20;99.90
23156;DHT22;11746;50.876;4.246;2022-10-04T15:55:15;19.50;99.90
23156;DHT22;11746;50.876;4.246;2022-10-04T16:11:57;19.40;99.90
23156;DHT22;11746;50.876;4.246;2022-10-04T16:22:38;19.20;99.90
23156;DHT22;11746;50.876;4.246;2022-10-04T16:35:46;18.90;99.90
23156;DHT22;11746;50.876;4.246;2022-10-04T16:38:22;18.70;99.90
23156;DHT22;11746;50.876;4.246;2022-10-04T16:41:00;18.50;99.90
23156;DHT22;11746;50.876;4.246;2022-10-04T16:43:33;18.40;99.90
23156;DHT22;11746;50.876;4.246;2022-10-04T16:48:58;18.20;99.90
23156;DHT22;11746;50.876;4.246;2022-10-04T16:54:33;18.10;99.90
23156;DHT22;11746;50.876;4.246;2022-10-04T17:09:54;17.80;99.90
23156;DHT22;11746;50.876;4.246;2022-10-04T17:18:29;17.60;99.90
23156;DHT22;11746;50.876;4.246;2022-10-04T17:21:01;17.50;99.90
23156;DHT22;11746;50.876;4.246;2022-10-04T17:23:49;17.60;99.90
23156;DHT22;11746;50.876;4.246;2022-10-04T17:26:57;17.60;99.90
23156;DHT22;11746;50.876;4.246;2022-10-04T17:29:35;17.50;99.90
23156;DHT22;11746;50.876;4.246;2022-10-04T17:32:27;17.60;99.90
23156;DHT22;11746;50.876;4.246;2022-10-04T17:35:57;17.50;99.90
23156;DHT22;11746;50.876;4.246;2022-10-04T17:47:08;17.10;99.90
23156;DHT22;11746;50.876;4.246;2022-10-04T17:52:53;17.10;99.90
23156;DHT22;11746;50.876;4.246;2022-10-04T17:55:51;17.00;99.90
23156;DHT22;11746;50.876;4.246;2022-10-04T17:58:28;17.00;99.90
23156;DHT22;11746;50.876;4.246;2022-10-04T18:01:25;16.90;99.90
23156;DHT22;11746;50.876;4.246;2022-10-04T18:06:49;17.00;99.90
23156;DHT22;11746;50.876;4.246;2022-10-04T18:12:26;17.10;99.90
23156;DHT22;11746;50.876;4.246;2022-10-04T18:15:16;17.00;99.90
23156;DHT22;11746;50.876;4.246;2022-10-04T18:17:47;17.10;99.90
23156;DHT22;11746;50.876;4.246;2022-10-04T18:23:33;17.20;99.90
23156;DHT22;11746;50.876;4.246;2022-10-04T18:26:13;17.00;99.90
23156;DHT22;11746;50.876;4.246;2022-10-04T18:28:44;17.00;99.90
23156;DHT22;11746;50.876;4.246;2022-10-04T18:31:22;16.90;99.90
23156;DHT22;11746;50.876;4.246;2022-10-04T18:33:50;16.90;99.90
23156;DHT22;11746;50.876;4.246;2022-10-04T18:36:24;16.80;99.90
23156;DHT22;11746;50.876;4.246;2022-10-04T18:41:41;17.00;99.90
23156;DHT22;11746;50.876;4.246;2022-10-04T18:44:29;16.90;99.90
23156;DHT22;11746;50.876;4.246;2022-10-04T18:49:53;16.90;99.90
23156;DHT22;11746;50.876;4.246;2022-10-04T18:52:35;16.90;99.90
23156;DHT22;11746;50.876;4.246;2022-10-04T19:01:36;16.70;99.90
23156;DHT22;11746;50.876;4.246;2022-10-04T19:07:44;16.90;99.90
23156;DHT22;11746;50.876;4.246;2022-10-04T19:10:29;16.90;99.90
23156;DHT22;11746;50.876;4.246;2022-10-04T19:13:32;17.00;99.90
23156;DHT22;11746;50.876;4.246;2022-10-04T19:16:25;16.90;99.90
23156;DHT22;11746;50.876;4.246;2022-10-04T19:24:45;16.80;99.90
23156;DHT22;11746;50.876;4.246;2022-10-04T19:27:22;16.80;99.90
23156;DHT22;11746;50.876;4.246;2022-10-04T19:41:28;16.70;99.90
23156;DHT22;11746;50.876;4.246;2022-10-04T19:47:00;16.70;99.90
23156;DHT22;11746;50.876;4.246;2022-10-04T19:54:52;16.50;99.90
23156;DHT22;11746;50.876;4.246;2022-10-04T19:57:35;16.50;99.90
23156;DHT22;11746;50.876;4.246;2022-10-04T20:00:08;16.60;99.90
23156;DHT22;11746;50.876;4.246;2022-10-04T20:02:38;16.60;99.90
23156;DHT22;11746;50.876;4.246;2022-10-04T20:05:18;16.60;99.90
23156;DHT22;11746;50.876;4.246;2022-10-04T20:07:51;16.60;99.90
23156;DHT22;11746;50.876;4.246;2022-10-04T20:10:28;16.70;99.90
23156;DHT22;11746;50.876;4.246;2022-10-04T20:15:43;16.80;99.90
23156;DHT22;11746;50.876;4.246;2022-10-04T20:29:07;16.70;99.90
23156;DHT22;11746;50.876;4.246;2022-10-04T20:31:51;16.70;99.90
23156;DHT22;11746;50.876;4.246;2022-10-04T20:37:07;16.70;99.90
23156;DHT22;11746;50.876;4.246;2022-10-04T20:44:55;16.70;99.90
23156;DHT22;11746;50.876;4.246;2022-10-04T20:48:00;16.60;99.90
23156;DHT22;11746;50.876;4.246;2022-10-04T20:50:32;16.60;99.90
23156;DHT22;11746;50.876;4.246;2022-10-04T20:53:02;16.60;99.90
23156;DHT22;11746;50.876;4.246;2022-10-04T20:55:35;16.60;99.90
23156;DHT22;11746;50.876;4.246;2022-10-04T20:58:29;16.70;99.90
23156;DHT22;11746;50.876;4.246;2022-10-04T21:01:04;16.70;99.90
23156;DHT22;11746;50.876;4.246;2022-10-04T21:03:51;16.80;99.90
23156;DHT22;11746;50.876;4.246;2022-10-04T21:06:16;16.80;99.90
23156;DHT22;11746;50.876;4.246;2022-10-04T21:08:43;16.70;99.90
23156;DHT22;11746;50.876;4.246;2022-10-04T21:11:19;16.80;99.90
23156;DHT22;11746;50.876;4.246;2022-10-04T21:13:51;16.80;99.90
23156;DHT22;11746;50.876;4.246;2022-10-04T21:16:38;16.80;99.90
23156;DHT22;11746;50.876;4.246;2022-10-04T21:27:36;16.80;99.90
23156;DHT22;11746;50.876;4.246;2022-10-04T21:30:06;16.80;99.90
23156;DHT22;11746;50.876;4.246;2022-10-04T21:32:34;16.70;99.90
23156;DHT22;11746;50.876;4.246;2022-10-04T21:35:02;16.70;99.90
23156;DHT22;11746;50.876;4.246;2022-10-04T21:37:29;16.80;99.90
23156;DHT22;11746;50.876;4.246;2022-10-04T21:39:56;16.80;99.90
23156;DHT22;11746;50.876;4.246;2022-10-04T21:42:22;16.80;99.90
23156;DHT22;11746;50.876;4.246;2022-10-04T21:44:49;16.90;99.90
23156;DHT22;11746;50.876;4.246;2022-10-04T21:47:16;16.80;99.90
23156;DHT22;11746;50.876;4.246;2022-10-04T21:49:42;16.70;99.90
23156;DHT22;11746;50.876;4.246;2022-10-04T21:52:08;16.70;99.90
23156;DHT22;11746;50.876;4.246;2022-10-04T21:54:34;16.70;99.90
23156;DHT22;11746;50.876;4.246;2022-10-04T21:57:00;16.70;99.90
23156;DHT22;11746;50.876;4.246;2022-10-04T21:59:26;16.70;99.90
23156;DHT22;11746;50.876;4.246;2022-10-04T22:01:52;16.80;99.90
23156;DHT22;11746;50.876;4.246;2022-10-04T22:04:18;16.70;99.90
23156;DHT22;11746;50.876;4.246;2022-10-04T22:06:45;16.80;99.90
23156;DHT22;11746;50.876;4.246;2022-10-04T22:09:11;16.70;99.90
23156;DHT22;11746;50.876;4.246;2022-10-04T22:11:37;16.80;99.90
23156;DHT22;11746;50.876;4.246;2022-10-04T22:14:03;16.80;99.90
23156;DHT22;11746;50.876;4.246;2022-10-04T22:16:29;16.80;99.90
23156;DHT22;11746;50.876;4.246;2022-10-04T22:18:55;16.80;99.90
23156;DHT22;11746;50.876;4.246;2022-10-04T22:21:21;16.90;99.90
23156;DHT22;11746;50.876;4.246;2022-10-04T22:23:47;16.60;99.90
23156;DHT22;11746;50.876;4.246;2022-10-04T22:26:14;16.50;99.90
23156;DHT22;11746;50.876;4.246;2022-10-04T22:28:47;16.60;99.90
23156;DHT22;11746;50.876;4.246;2022-10-04T22:31:15;16.50;99.90
23156;DHT22;11746;50.876;4.246;2022-10-04T22:33:43;16.50;99.90
23156;DHT22;11746;50.876;4.246;2022-10-04T22:41:35;16.30;99.90
23156;DHT22;11746;50.876;4.246;2022-10-04T22:44:19;16.40;99.90
23156;DHT22;11746;50.876;4.246;2022-10-04T22:46:54;16.20;99.90
23156;DHT22;11746;50.876;4.246;2022-10-04T22:49:25;16.20;99.90
23156;DHT22;11746;50.876;4.246;2022-10-04T22:51:52;16.10;99.90
23156;DHT22;11746;50.876;4.246;2022-10-04T22:54:22;16.20;99.90
23156;DHT22;11746;50.876;4.246;2022-10-04T22:56:50;16.20;99.90
23156;DHT22;11746;50.876;4.246;2022-10-04T22:59:17;16.20;99.90
23156;DHT22;11746;50.876;4.246;2022-10-04T23:01:47;16.30;99.90
23156;DHT22;11746;50.876;4.246;2022-10-04T23:04:21;16.40;99.90
23156;DHT22;11746;50.876;4.246;2022-10-04T23:06:48;16.30;99.90
23156;DHT22;11746;50.876;4.246;2022-10-04T23:09:15;16.40;99.90
23156;DHT22;11746;50.876;4.246;2022-10-04T23:11:42;16.30;99.90
23156;DHT22;11746;50.876;4.246;2022-10-04T23:14:08;16.40;99.90
23156;DHT22;11746;50.876;4.246;2022-10-04T23:16:35;16.30;99.90
23156;DHT22;11746;50.876;4.246;2022-10-04T23:19:12;16.20;99.90
23156;DHT22;11746;50.876;4.246;2022-10-04T23:21:42;16.20;99.90
23156;DHT22;11746;50.876;4.246;2022-10-04T23:24:15;16.10;99.90
23156;DHT22;11746;50.876;4.246;2022-10-04T23:26:45;16.10;99.90
23156;DHT22;11746;50.876;4.246;2022-10-04T23:29:20;16.10;99.90
23156;DHT22;11746;50.876;4.246;2022-10-04T23:31:47;16.00;99.90
23156;DHT22;11746;50.876;4.246;2022-10-04T23:34:37;16.10;99.90
23156;DHT22;11746;50.876;4.246;2022-10-04T23:37:24;16.10;99.90
23156;DHT22;11746;50.876;4.246;2022-10-04T23:39:51;16.10;99.90
23156;DHT22;11746;50.876;4.246;2022-10-04T23:42:28;16.00;99.90
23156;DHT22;11746;50.876;4.246;2022-10-04T23:45:01;15.90;99.90
23156;DHT22;11746;50.876;4.246;2022-10-04T23:47:35;16.10;99.90
23156;DHT22;11746;50.876;4.246;2022-10-04T23:50:15;16.10;99.90
23156;DHT22;11746;50.876;4.246;2022-10-04T23:52:43;16.10;99.90
23156;DHT22;11746;50.876;4.246;2022-10-04T23:55:16;16.10;99.90
23156;DHT22;11746;50.876;4.246;2022-10-04T23:57:43;16.10;99.90
